sensor_id;sensor_type;location;lat;lon;timestamp;P1;P2;P0
76043;PMS7003;64740;34.694;33.088;2023-06-22T00:02:18;7.5;7.2;5.3
76043;PMS7003;64740;34.694;33.088;2023-06-22T00:07:30;7.7;7.6;5.8
76043;PMS7003;64740;34.694;33.088;2023-06-22T00:11:56;8.5;8.3;6
76043;PMS7003;64740;34.694;33.088;2023-06-22T00:17:24;7.2;7.1;5.4
76043;PMS7003;64740;34.694;33.088;2023-06-22T00:22:02;8;7.9;6.1
76043;PMS7003;64740;34.694;33.088;2023-06-22T00:26:54;8;7.7;6
76043;PMS7003;64740;34.694;33.088;2023-06-22T00:31:54;8;8;6.4
76043;PMS7003;64740;34.694;33.088;2023-06-22T00:37:28;8.8;8.5;6.3
76043;PMS7003;64740;34.694;33.088;2023-06-22T00:42:10;8.1;8;6.1
76043;PMS7003;64740;34.694;33.088;2023-06-22T00:47:24;8.4;8.1;6
76043;PMS7003;64740;34.694;33.088;2023-06-22T00:52:38;10;9.9;7.8
76043;PMS7003;64740;34.694;33.088;2023-06-22T00:57:30;8.7;8.5;6.6
76043;PMS7003;64740;34.694;33.088;2023-06-22T01:01:54;8.8;8.6;6.4
76043;PMS7003;64740;34.694;33.088;2023-06-22T01:07:29;7.8;7.7;6
76043;PMS7003;64740;34.694;33.088;2023-06-22T01:12:38;7.9;7.8;6
76043;PMS7003;64740;34.694;33.088;2023-06-22T01:17:36;6.3;6.3;4.8
76043;PMS7003;64740;34.694;33.088;2023-06-22T01:22:51;7.7;7.7;5.4
76043;PMS7003;64740;34.694;33.088;2023-06-22T01:27:46;7.3;7.3;5.5
76043;PMS7003;64740;34.694;33.088;2023-06-22T01:32:04;8.9;8.7;6.8
76043;PMS7003;64740;34.694;33.088;2023-06-22T01:37:04;9;8.8;7.1
76043;PMS7003;64740;34.694;33.088;2023-06-22T01:42:06;7.9;7.7;6.1
76043;PMS7003;64740;34.694;33.088;2023-06-22T01:47:42;8.6;8.3;6.4
76043;PMS7003;64740;34.694;33.088;2023-06-22T01:52:30;8.3;8.2;6.3
76043;PMS7003;64740;34.694;33.088;2023-06-22T01:57:32;7.3;7.2;5.5
76043;PMS7003;64740;34.694;33.088;2023-06-22T02:02:06;7.3;7.2;5.7
76043;PMS7003;64740;34.694;33.088;2023-06-22T02:06:55;6.8;6.8;5.4
76043;PMS7003;64740;34.694;33.088;2023-06-22T02:11:54;6.4;6.3;5.1
76043;PMS7003;64740;34.694;33.088;2023-06-22T02:17:08;7;6.9;5.4
76043;PMS7003;64740;34.694;33.088;2023-06-22T02:22:42;5.7;5.7;4.3
76043;PMS7003;64740;34.694;33.088;2023-06-22T02:27:06;7.2;7;5.4
76043;PMS7003;64740;34.694;33.088;2023-06-22T02:32:30;6.5;6.4;5
76043;PMS7003;64740;34.694;33.088;2023-06-22T02:37:04;5.4;5.2;4.3
76043;PMS7003;64740;34.694;33.088;2023-06-22T02:41:54;6.2;5.9;4.5
76043;PMS7003;64740;34.694;33.088;2023-06-22T02:47:40;6.9;6.9;5.3
76043;PMS7003;64740;34.694;33.088;2023-06-22T02:52:08;6.9;6.9;5.3
76043;PMS7003;64740;34.694;33.088;2023-06-22T02:57:26;5.9;5.8;4.6
76043;PMS7003;64740;34.694;33.088;2023-06-22T03:02:16;5.3;5.3;4.2
76043;PMS7003;64740;34.694;33.088;2023-06-22T03:07:42;6.5;6.5;5
76043;PMS7003;64740;34.694;33.088;2023-06-22T03:11:54;6.5;6.4;4.7
76043;PMS7003;64740;34.694;33.088;2023-06-22T03:16:54;6.2;6.2;5
76043;PMS7003;64740;34.694;33.088;2023-06-22T03:22:42;4.6;4.6;3.9
76043;PMS7003;64740;34.694;33.088;2023-06-22T03:27:20;5.1;5.1;4
76043;PMS7003;64740;34.694;33.088;2023-06-22T03:32:14;5.7;5.7;4.5
76043;PMS7003;64740;34.694;33.088;2023-06-22T03:37:16;5.7;5.6;4.5
76043;PMS7003;64740;34.694;33.088;2023-06-22T03:42:42;4.7;4.6;3.8
76043;PMS7003;64740;34.694;33.088;2023-06-22T03:46:54;5;4.9;3.9
76043;PMS7003;64740;34.694;33.088;2023-06-22T03:52:04;4.9;4.8;3.9
76043;PMS7003;64740;34.694;33.088;2023-06-22T03:57:40;5.2;5.1;4
76043;PMS7003;64740;34.694;33.088;2023-06-22T04:02:16;4.4;4.4;3.7
76043;PMS7003;64740;34.694;33.088;2023-06-22T04:07:04;4.6;4.6;3.4
76043;PMS7003;64740;34.694;33.088;2023-06-22T04:12:16;4.8;4.7;3.8
76043;PMS7003;64740;34.694;33.088;2023-06-22T04:17:24;4.9;4.8;3.7
76043;PMS7003;64740;34.694;33.088;2023-06-22T04:22:08;5.1;5.1;3.6
76043;PMS7003;64740;34.694;33.088;2023-06-22T04:27:16;5.7;5.6;4.5
76043;PMS7003;64740;34.694;33.088;2023-06-22T04:32:40;6.8;6.5;4.9
76043;PMS7003;64740;34.694;33.088;2023-06-22T04:37:24;7.3;6.9;5.4
76043;PMS7003;64740;34.694;33.088;2023-06-22T04:42:04;8.6;8.4;6.2
76043;PMS7003;64740;34.694;33.088;2023-06-22T04:47:16;9.6;9.4;7.2
76043;PMS7003;64740;34.694;33.088;2023-06-22T04:52:07;13.4;13.1;9.6
76043;PMS7003;64740;34.694;33.088;2023-06-22T04:57:05;15.1;14.6;10.3
76043;PMS7003;64740;34.694;33.088;2023-06-22T05:02:20;15.5;15;10.7
76043;PMS7003;64740;34.694;33.088;2023-06-22T05:07:16;14.7;14.6;10.9
76043;PMS7003;64740;34.694;33.088;2023-06-22T05:12:24;12.9;12.5;9.8
76043;PMS7003;64740;34.694;33.088;2023-06-22T05:17:24;12.5;12.3;9.2
76043;PMS7003;64740;34.694;33.088;2023-06-22T05:21:52;13.3;13;9.6
76043;PMS7003;64740;34.694;33.088;2023-06-22T05:27:02;13.1;12.9;9.5
76043;PMS7003;64740;34.694;33.088;2023-06-22T05:31:52;11.5;11.3;8.7
76043;PMS7003;64740;34.694;33.088;2023-06-22T05:37:38;11;11;8.6
76043;PMS7003;64740;34.694;33.088;2023-06-22T05:42:10;12.5;12.2;9.1
76043;PMS7003;64740;34.694;33.088;2023-06-22T05:47:14;11.2;10.8;8.1
76043;PMS7003;64740;34.694;33.088;2023-06-22T05:52:40;11.1;10.8;8.1
76043;PMS7003;64740;34.694;33.088;2023-06-22T05:57:30;11.5;11.3;8.1
76043;PMS7003;64740;34.694;33.088;2023-06-22T06:02:14;12.2;11.7;8.8
76043;PMS7003;64740;34.694;33.088;2023-06-22T06:07:28;10.8;10.6;7.8
76043;PMS7003;64740;34.694;33.088;2023-06-22T06:12:40;9;8.9;6.8
76043;PMS7003;64740;34.694;33.088;2023-06-22T06:17:44;8.9;8.7;6.5
76043;PMS7003;64740;34.694;33.088;2023-06-22T06:22:40;10;10;7.5
76043;PMS7003;64740;34.694;33.088;2023-06-22T06:27:40;10.2;10.2;7.6
76043;PMS7003;64740;34.694;33.088;2023-06-22T06:31:52;9.7;9.7;7.4
76043;PMS7003;64740;34.694;33.088;2023-06-22T06:37:16;10.4;10;7.4
76043;PMS7003;64740;34.694;33.088;2023-06-22T06:42:30;12.2;11.9;9.2
76043;PMS7003;64740;34.694;33.088;2023-06-22T06:47:40;30.3;27.8;19.4
76043;PMS7003;64740;34.694;33.088;2023-06-22T06:52:26;20.1;19.7;14.7
76043;PMS7003;64740;34.694;33.088;2023-06-22T06:57:28;19.7;19.4;13.9
76043;PMS7003;64740;34.694;33.088;2023-06-22T07:02:38;15;14.7;11.2
76043;PMS7003;64740;34.694;33.088;2023-06-22T07:06:52;13;13;9.7
76043;PMS7003;64740;34.694;33.088;2023-06-22T07:11:52;12.8;12.8;9.8
76043;PMS7003;64740;34.694;33.088;2023-06-22T07:16:52;12.8;12.7;9.7
76043;PMS7003;64740;34.694;33.088;2023-06-22T07:22:36;14.6;14.3;10.4
76043;PMS7003;64740;34.694;33.088;2023-06-22T07:27:26;13.2;13.1;9.8
76043;PMS7003;64740;34.694;33.088;2023-06-22T07:32:38;13.8;13.5;9.9
76043;PMS7003;64740;34.694;33.088;2023-06-22T07:36:52;13.7;13.7;10
76043;PMS7003;64740;34.694;33.088;2023-06-22T07:42:12;15.5;15.4;11.2
76043;PMS7003;64740;34.694;33.088;2023-06-22T07:47:24;16.4;16.2;11.4
76043;PMS7003;64740;34.694;33.088;2023-06-22T07:52:02;14.3;14.1;10.8
76043;PMS7003;64740;34.694;33.088;2023-06-22T07:57:12;17;16.4;11.9
76043;PMS7003;64740;34.694;33.088;2023-06-22T08:02:13;18.3;17.8;12.9
76043;PMS7003;64740;34.694;33.088;2023-06-22T08:07:38;20.1;19.5;13.8
76043;PMS7003;64740;34.694;33.088;2023-06-22T08:12:04;18.1;17.9;13.4
76043;PMS7003;64740;34.694;33.088;2023-06-22T08:16:54;17;16.8;12.5
76043;PMS7003;64740;34.694;33.088;2023-06-22T08:22:38;18.2;17.4;12.7
76043;PMS7003;64740;34.694;33.088;2023-06-22T08:27:26;18.3;17.6;13
76043;PMS7003;64740;34.694;33.088;2023-06-22T08:32:10;15.7;15.5;11.4
76043;PMS7003;64740;34.694;33.088;2023-06-22T08:37:12;16.9;16.7;12.4
76043;PMS7003;64740;34.694;33.088;2023-06-22T08:42:08;16.3;16;12.1
76043;PMS7003;64740;34.694;33.088;2023-06-22T08:47:04;16;15.8;11.7
76043;PMS7003;64740;34.694;33.088;2023-06-22T08:52:06;14.3;13.9;10.2
76043;PMS7003;64740;34.694;33.088;2023-06-22T08:57:40;14;13.8;10.3
76043;PMS7003;64740;34.694;33.088;2023-06-22T09:02:22;13.8;13.7;10
76043;PMS7003;64740;34.694;33.088;2023-06-22T09:07:10;14.5;14.4;10.4
76043;PMS7003;64740;34.694;33.088;2023-06-22T09:12:16;14.1;14.1;10.4
76043;PMS7003;64740;34.694;33.088;2023-06-22T09:17:24;14.2;13.9;11
76043;PMS7003;64740;34.694;33.088;2023-06-22T09:21:52;14.4;14.1;10.5
76043;PMS7003;64740;34.694;33.088;2023-06-22T09:27:16;15.4;14.9;11.2
76043;PMS7003;64740;34.694;33.088;2023-06-22T09:32:28;14.3;14;11
76043;PMS7003;64740;34.694;33.088;2023-06-22T09:37:24;14.1;13.9;9.9
76043;PMS7003;64740;34.694;33.088;2023-06-22T09:42:24;14.4;14.4;10.8
76043;PMS7003;64740;34.694;33.088;2023-06-22T09:47:14;14.6;14.4;10.8
76043;PMS7003;64740;34.694;33.088;2023-06-22T09:51:52;14.8;14.7;10.7
76043;PMS7003;64740;34.694;33.088;2023-06-22T09:57:02;14.4;14.2;10.5
76043;PMS7003;64740;34.694;33.088;2023-06-22T10:02:40;15.6;15.4;11.7
76043;PMS7003;64740;34.694;33.088;2023-06-22T10:07:12;14.8;14.8;10.8
76043;PMS7003;64740;34.694;33.088;2023-06-22T10:12:25;13.7;13.1;10.3
76043;PMS7003;64740;34.694;33.088;2023-06-22T10:17:36;14.3;14.1;10.5
76043;PMS7003;64740;34.694;33.088;2023-06-22T10:21:54;13.6;13.4;10.3
76043;PMS7003;64740;34.694;33.088;2023-06-22T10:27:04;12.1;11.8;8.8
76043;PMS7003;64740;34.694;33.088;2023-06-22T10:32:44;10.4;10.4;7.6
76043;PMS7003;64740;34.694;33.088;2023-06-22T10:37:42;10;9.6;7.3
76043;PMS7003;64740;34.694;33.088;2023-06-22T10:42:28;10.2;10.1;8
76043;PMS7003;64740;34.694;33.088;2023-06-22T10:47:42;10.8;10.7;8.2
76043;PMS7003;64740;34.694;33.088;2023-06-22T10:52:40;9.7;9.6;7.5
76043;PMS7003;64740;34.694;33.088;2023-06-22T10:56:52;9;8.7;7.1
76043;PMS7003;64740;34.694;33.088;2023-06-22T11:02:16;9.6;9.5;7.4
76043;PMS7003;64740;34.694;33.088;2023-06-22T11:07:41;8.3;8.3;6.4
76043;PMS7003;64740;34.694;33.088;2023-06-22T11:12:38;7.4;7.3;5.7
76043;PMS7003;64740;34.694;33.088;2023-06-22T11:17:28;7.7;7.7;5.7
76043;PMS7003;64740;34.694;33.088;2023-06-22T11:22:30;7.4;7.4;5.7
76043;PMS7003;64740;34.694;33.088;2023-06-22T11:27:40;6.8;6.8;5.3
76043;PMS7003;64740;34.694;33.088;2023-06-22T11:32:00;8.3;8.1;6.2
76043;PMS7003;64740;34.694;33.088;2023-06-22T11:37:02;8.3;8.3;6.6
76043;PMS7003;64740;34.694;33.088;2023-06-22T11:42:38;8.7;8.6;6.9
76043;PMS7003;64740;34.694;33.088;2023-06-22T11:47:24;8.3;8.1;6.5
76043;PMS7003;64740;34.694;33.088;2023-06-22T11:52:24;8.3;8.2;6.3
76043;PMS7003;64740;34.694;33.088;2023-06-22T11:57:51;7.5;7.2;5.7
76043;PMS7003;64740;34.694;33.088;2023-06-22T12:02:02;7.4;7.4;5.7
76043;PMS7003;64740;34.694;33.088;2023-06-22T12:07:00;7.2;7.1;5.6
76043;PMS7003;64740;34.694;33.088;2023-06-22T12:12:26;6.6;6.5;5.2
76043;PMS7003;64740;34.694;33.088;2023-06-22T12:17:14;5.5;5.5;4.4
76043;PMS7003;64740;34.694;33.088;2023-06-22T12:22:08;5.6;5.5;4.5
76043;PMS7003;64740;34.694;33.088;2023-06-22T12:27:12;4.6;4.5;3.2
76043;PMS7003;64740;34.694;33.088;2023-06-22T12:32:38;5.7;5.2;4
76043;PMS7003;64740;34.694;33.088;2023-06-22T12:36:52;4.3;4.3;3.6
76043;PMS7003;64740;34.694;33.088;2023-06-22T12:41:54;5;5;4
76043;PMS7003;64740;34.694;33.088;2023-06-22T12:47:42;4.8;4.7;3.8
76043;PMS7003;64740;34.694;33.088;2023-06-22T12:52:26;4.8;4.8;3.7
76043;PMS7003;64740;34.694;33.088;2023-06-22T12:56:54;4.6;4.5;3.5
76043;PMS7003;64740;34.694;33.088;2023-06-22T13:02:14;4.7;4.7;3.9
76043;PMS7003;64740;34.694;33.088;2023-06-22T13:07:18;4;3.9;3.1
76043;PMS7003;64740;34.694;33.088;2023-06-22T13:11:54;4.3;4.2;3.4
76043;PMS7003;64740;34.694;33.088;2023-06-22T13:17:18;4.3;4.2;3.5
76043;PMS7003;64740;34.694;33.088;2023-06-22T13:22:42;4.1;4;3.3
76043;PMS7003;64740;34.694;33.088;2023-06-22T13:27:40;4.7;4.7;3.8
76043;PMS7003;64740;34.694;33.088;2023-06-22T13:32:12;5.2;5.1;3.9
76043;PMS7003;64740;34.694;33.088;2023-06-22T13:37:06;4.8;4.8;4.1
76043;PMS7003;64740;34.694;33.088;2023-06-22T13:41:54;4.9;4.9;3.9
76043;PMS7003;64740;34.694;33.088;2023-06-22T13:46:52;5.9;5.7;4.5
76043;PMS7003;64740;34.694;33.088;2023-06-22T13:52:16;10.7;10.7;8
76043;PMS7003;64740;34.694;33.088;2023-06-22T13:57:28;8.2;8.1;6.7
76043;PMS7003;64740;34.694;33.088;2023-06-22T14:02:26;7.3;7.1;5.4
76043;PMS7003;64740;34.694;33.088;2023-06-22T14:07:22;6.7;6.5;5.1
76043;PMS7003;64740;34.694;33.088;2023-06-22T14:12:12;6.2;6.2;5
76043;PMS7003;64740;34.694;33.088;2023-06-22T14:16:52;6.3;6.2;5.3
76043;PMS7003;64740;34.694;33.088;2023-06-22T14:21:52;6.5;6.5;5.2
76043;PMS7003;64740;34.694;33.088;2023-06-22T14:27:40;6.2;6.1;4.8
76043;PMS7003;64740;34.694;33.088;2023-06-22T14:31:52;7.9;7.8;5.9
76043;PMS7003;64740;34.694;33.088;2023-06-22T14:37:26;5.8;5.6;4.3
76043;PMS7003;64740;34.694;33.088;2023-06-22T14:42:42;5.4;5.4;4.2
76043;PMS7003;64740;34.694;33.088;2023-06-22T14:47:30;5.2;5.1;4
76043;PMS7003;64740;34.694;33.088;2023-06-22T14:52:06;5;4.9;3.7
76043;PMS7003;64740;34.694;33.088;2023-06-22T14:57:32;4.8;4.8;3.7
76043;PMS7003;64740;34.694;33.088;2023-06-22T15:02:40;4;4;3.3
76043;PMS7003;64740;34.694;33.088;2023-06-22T15:07:42;4.7;4.6;3.8
76043;PMS7003;64740;34.694;33.088;2023-06-22T15:12:42;3.8;3.8;3.1
76043;PMS7003;64740;34.694;33.088;2023-06-22T15:17:42;4.7;4.6;3.6
76043;PMS7003;64740;34.694;33.088;2023-06-22T15:22:10;5.5;5.4;4.2
76043;PMS7003;64740;34.694;33.088;2023-06-22T15:26:54;5.4;5.3;4.2
76043;PMS7003;64740;34.694;33.088;2023-06-22T15:32:28;5.4;5.3;4.1
76043;PMS7003;64740;34.694;33.088;2023-06-22T15:37:40;5.2;5.1;4.1
76043;PMS7003;64740;34.694;33.088;2023-06-22T15:42:16;5;4.9;3.8
76043;PMS7003;64740;34.694;33.088;2023-06-22T15:47:28;5.2;5.2;3.7
76043;PMS7003;64740;34.694;33.088;2023-06-22T15:52:24;5.3;5.2;4.1
76043;PMS7003;64740;34.694;33.088;2023-06-22T15:56:54;5.2;4.9;4
76043;PMS7003;64740;34.694;33.088;2023-06-22T16:02:02;5.2;5.1;4.1
76043;PMS7003;64740;34.694;33.088;2023-06-22T16:07:18;4.6;4.4;3.5
76043;PMS7003;64740;34.694;33.088;2023-06-22T16:12:43;4.7;4.6;3.8
76043;PMS7003;64740;34.694;33.088;2023-06-22T16:17:28;8;7.7;5.9
76043;PMS7003;64740;34.694;33.088;2023-06-22T16:22:40;5.7;5.7;4.4
76043;PMS7003;64740;34.694;33.088;2023-06-22T16:26:54;4.4;4.4;3.4
76043;PMS7003;64740;34.694;33.088;2023-06-22T16:32:07;4.4;4.4;3.4
76043;PMS7003;64740;34.694;33.088;2023-06-22T16:37:26;4.9;4.9;4
76043;PMS7003;64740;34.694;33.088;2023-06-22T16:42:18;5;5;4.1
76043;PMS7003;64740;34.694;33.088;2023-06-22T16:47:12;5.5;5.2;4.2
76043;PMS7003;64740;34.694;33.088;2023-06-22T16:52:16;4.6;4.6;3.7
76043;PMS7003;64740;34.694;33.088;2023-06-22T16:57:42;5.9;5.8;4.7
76043;PMS7003;64740;34.694;33.088;2023-06-22T17:02:17;6.8;6.6;5.2
76043;PMS7003;64740;34.694;33.088;2023-06-22T17:07:08;8.5;8.5;6.7
76043;PMS7003;64740;34.694;33.088;2023-06-22T17:12:28;7.8;7.8;5.9
76043;PMS7003;64740;34.694;33.088;2023-06-22T17:17:04;9.3;9.1;7
76043;PMS7003;64740;34.694;33.088;2023-06-22T17:22:10;10.9;10.7;8.4
76043;PMS7003;64740;34.694;33.088;2023-06-22T17:27:04;12;11.8;9
76043;PMS7003;64740;34.694;33.088;2023-06-22T17:32:29;9.7;9.5;7.5
76043;PMS7003;64740;34.694;33.088;2023-06-22T17:37:08;10.1;9.9;7.7
76043;PMS7003;64740;34.694;33.088;2023-06-22T17:41:54;11.3;11.1;8.1
76043;PMS7003;64740;34.694;33.088;2023-06-22T17:47:38;11.8;11.6;8.5
76043;PMS7003;64740;34.694;33.088;2023-06-22T17:52:26;10.7;10.7;8.4
76043;PMS7003;64740;34.694;33.088;2023-06-22T17:57:14;11.9;11.9;8.5
76043;PMS7003;64740;34.694;33.088;2023-06-22T18:02:30;11.7;11.7;8.9
76043;PMS7003;64740;34.694;33.088;2023-06-22T18:07:14;12.3;12.2;9
76043;PMS7003;64740;34.694;33.088;2023-06-22T18:11:54;15.4;15.2;11.2
76043;PMS7003;64740;34.694;33.088;2023-06-22T18:16:54;14.6;14.5;10.8
76043;PMS7003;64740;34.694;33.088;2023-06-22T18:22:31;14;13.5;10.5
76043;PMS7003;64740;34.694;33.088;2023-06-22T18:27:24;16.3;16;11.6
76043;PMS7003;64740;34.694;33.088;2023-06-22T18:32:25;19.1;18.8;13.7
76043;PMS7003;64740;34.694;33.088;2023-06-22T18:37:15;16.5;16.1;12
76043;PMS7003;64740;34.694;33.088;2023-06-22T18:42:15;16;15.8;11.7
76043;PMS7003;64740;34.694;33.088;2023-06-22T18:47:03;18.4;17.9;12.8
76043;PMS7003;64740;34.694;33.088;2023-06-22T18:52:17;17.6;17.4;12.8
76043;PMS7003;64740;34.694;33.088;2023-06-22T18:57:11;17.2;17.1;12.5
76043;PMS7003;64740;34.694;33.088;2023-06-22T19:02:41;17.8;17.4;12.7
76043;PMS7003;64740;34.694;33.088;2023-06-22T19:07:55;17;16.8;12.4
76043;PMS7003;64740;34.694;33.088;2023-06-22T19:12:29;16.4;16.1;12.4
76043;PMS7003;64740;34.694;33.088;2023-06-22T19:17:07;16.6;16.4;11.9
76043;PMS7003;64740;34.694;33.088;2023-06-22T19:22:42;16.1;16.1;11.9
76043;PMS7003;64740;34.694;33.088;2023-06-22T19:27:37;13.5;13.3;9.9
76043;PMS7003;64740;34.694;33.088;2023-06-22T19:32:37;12.1;11.9;9.3
76043;PMS7003;64740;34.694;33.088;2023-06-22T19:37:37;10.9;10.8;8
76043;PMS7003;64740;34.694;33.088;2023-06-22T19:42:37;9.5;9.4;7.3
76043;PMS7003;64740;34.694;33.088;2023-06-22T19:47:03;9;8.8;6.8
76043;PMS7003;64740;34.694;33.088;2023-06-22T19:52:06;8.6;8.5;6.3
76043;PMS7003;64740;34.694;33.088;2023-06-22T19:57:32;9.7;9.6;7
76043;PMS7003;64740;34.694;33.088;2023-06-22T20:02:37;10.8;10.5;7.9
76043;PMS7003;64740;34.694;33.088;2023-06-22T20:07:13;10.7;10.4;7.8
76043;PMS7003;64740;34.694;33.088;2023-06-22T20:12:29;10.2;10.2;7.8
76043;PMS7003;64740;34.694;33.088;2023-06-22T20:17:39;10.3;10.2;7.9
76043;PMS7003;64740;34.694;33.088;2023-06-22T20:22:17;9.8;9.7;7.4
76043;PMS7003;64740;34.694;33.088;2023-06-22T20:27:09;10.7;10.5;8
76043;PMS7003;64740;34.694;33.088;2023-06-22T20:32:15;10.9;10.5;7.7
76043;PMS7003;64740;34.694;33.088;2023-06-22T20:37:11;9.2;9;6.6
76043;PMS7003;64740;34.694;33.088;2023-06-22T20:42:25;9.5;9.5;7.3
76043;PMS7003;64740;34.694;33.088;2023-06-22T20:47:37;9.6;9.4;7.2
76043;PMS7003;64740;34.694;33.088;2023-06-22T20:52:39;9;8.7;6.8
76043;PMS7003;64740;34.694;33.088;2023-06-22T20:57:03;10.3;10.1;7.4
76043;PMS7003;64740;34.694;33.088;2023-06-22T21:02:25;10.3;9.9;7.4
76043;PMS7003;64740;34.694;33.088;2023-06-22T21:06:55;9.5;9.4;7.3
76043;PMS7003;64740;34.694;33.088;2023-06-22T21:11:57;9.1;9;7
76043;PMS7003;64740;34.694;33.088;2023-06-22T21:17:03;8.6;8.4;6.8
76043;PMS7003;64740;34.694;33.088;2023-06-22T21:22:39;8.8;8.7;7
76043;PMS7003;64740;34.694;33.088;2023-06-22T21:26:55;9.1;8.8;7.1
76043;PMS7003;64740;34.694;33.088;2023-06-22T21:31:55;8.5;8.3;6.5
76043;PMS7003;64740;34.694;33.088;2023-06-22T21:37:40;9.8;9.3;7.2
76043;PMS7003;64740;34.694;33.088;2023-06-22T21:42:23;7.9;7.7;6.1
76043;PMS7003;64740;34.694;33.088;2023-06-22T21:46:55;8;7.9;6
76043;PMS7003;64740;34.694;33.088;2023-06-22T21:51:55;8;8;6
76043;PMS7003;64740;34.694;33.088;2023-06-22T21:57:25;8.3;8.2;6.1
76043;PMS7003;64740;34.694;33.088;2023-06-22T22:02:13;10.3;9.8;7.3
76043;PMS7003;64740;34.694;33.088;2023-06-22T22:07:03;8.5;8.4;6.6
76043;PMS7003;64740;34.694;33.088;2023-06-22T22:12:39;8.4;8.2;6.7
76043;PMS7003;64740;34.694;33.088;2023-06-22T22:17:25;8.5;8.4;6.2
76043;PMS7003;64740;34.694;33.088;2023-06-22T22:22:09;8.3;8;6.4
76043;PMS7003;64740;34.694;33.088;2023-06-22T22:27:13;8.7;8.6;6.5
76043;PMS7003;64740;34.694;33.088;2023-06-22T22:32:13;8.5;8.4;6.8
76043;PMS7003;64740;34.694;33.088;2023-06-22T22:36:53;8.5;8.4;6.6
76043;PMS7003;64740;34.694;33.088;2023-06-22T22:42:03;7.7;7.5;5.5
76043;PMS7003;64740;34.694;33.088;2023-06-22T22:47:29;7.8;7.8;6.1
76043;PMS7003;64740;34.694;33.088;2023-06-22T22:52:17;7.6;7.4;5.8
76043;PMS7003;64740;34.694;33.088;2023-06-22T22:57:25;8;7.8;6
76043;PMS7003;64740;34.694;33.088;2023-06-22T23:02:15;8.1;8;6.2
76043;PMS7003;64740;34.694;33.088;2023-06-22T23:06:55;7.3;7.3;5.6
76043;PMS7003;64740;34.694;33.088;2023-06-22T23:11:53;7.5;7.4;5.9
76043;PMS7003;64740;34.694;33.088;2023-06-22T23:17:37;7.6;7.4;5.8
76043;PMS7003;64740;34.694;33.088;2023-06-22T23:22:11;8.3;8.1;5.8
76043;PMS7003;64740;34.694;33.088;2023-06-22T23:27:15;7.2;7.1;5.5
76043;PMS7003;64740;34.694;33.088;2023-06-22T23:32:37;8;7.8;6.1
76043;PMS7003;64740;34.694;33.088;2023-06-22T23:37:27;7.1;7;5.8
76043;PMS7003;64740;34.694;33.088;2023-06-22T23:42:11;8.6;8.4;6.4
76043;PMS7003;64740;34.694;33.088;2023-06-22T23:47:29;7.2;7.1;5.6
76043;PMS7003;64740;34.694;33.088;2023-06-22T23:52:37;7.7;7.7;6
76043;PMS7003;64740;34.694;33.088;2023-06-22T23:57:37;8.1;8;6
